TOURFACTS.DK  
Stats and Facts from Tour de France.

Tour de France 2018 starts in 169 days
  Riders   Stages   Teams   Summits   Yearly  


 
Search by year

 2017 - St.21:
 14824 starters.
  5132 different riders.
  635 teams.
  2232 stages.
  454 restdays.
  439589.60 km.
  5653 abandonnees.


Top 3
GC
Christopher Froome86:20:55
Rigoberto Uran86:21:49
Romain Bardet86:23:15
Climb
Warren Barguil169 pt.
Primoz Roglic80 pt.
Thomas De Gendt64 pt.
Sprint
Michael Matthews359 pt.
André Greipel234 pt.
Edvald Boasson Hagen220 pt.
Youth
Simon Yates86:27:09
Louis Meintjes86:29:15
Emanuel Buchmann86:54:16
Facts from Tour de France 2010
  |   Stages.  |   Stage winners.  |   Days in yellow  |   Average speed.  |   Route.  |   Teams.  |   All riders.  |   Rookies.  |   Withdrawls.  |  

  |   GC.  |   Polka  |   Green  |   White  |   Summits. (In tour)  |   Summits. (Points)  |   Miscellaneous.  |  

Stage 16 on 20 - 07 - 2010
         Owning:    Andy Schleck    
Pick a stage:  Pro 1 2 3 4 5 6 7 8 9 10 11 12 13 14 15 16 17 18 19 20
  Bagnères-de-LuchonPau | Dist: 199.50 km.
Cat: 1Col de PeyresourdePOLSylvester Szmyd
15 points
 
Cat: 1Col d'AspinFRAAnthony Charteau
15 points
 
Cat: HCol du TourmaletFRAChristophe Moreau
20 points
 
Cat: HCol du TourmaletFRAChristophe Moreau
20 points
 

Average speed for all riders in stage:  33,791 km./hr.
    Place:Name:Team:Time:Km/h:
FRAPierrick FédrigoFRABbox Bouygues Telecom05:31:43  +  00:00:00=36,085 
FRASandy CasarFRAFrancaise Des Jeux05:31:43  +  00:00:00=36,085 
ESPRubén PlazaESPCaisse d´Epargne05:31:43  +  00:00:00=36,085 
4 ITADamiano CunegoITALampre-Farnese Vini05:31:43  +  00:00:00=36,085 
5 JPNChristopher HornerUSATeam Radio Shack05:31:43  +  00:00:00=36,085 
6 USALance ArmstrongUSATeam Radio Shack05:31:43  +  00:00:00=36,085 
7 BELJurgen Van De WalleBELQuick Step05:31:43  +  00:00:00=36,085 
8 FRAChristophe MoreauESPCaisse d´Epargne05:31:43  +  00:00:00=36,085 
9 ESPCarlos BarredoBELQuick Step05:32:11  +  00:00:28=36,034 
10 NORThor HushovdCHECervelo Test Team05:38:28  +  00:06:45=35,365 
11 ESPJosé Joaquin RojasESPCaisse d´Epargne05:38:28  +  00:06:45=35,365 
12 ITAEros CapecchiESPFooton-Servetto05:38:28  +  00:06:45=35,365 
13 FRANicolas RocheFRAAg2r La Mondiale05:38:28  +  00:06:45=35,365 
14 GERGerald CiolekDEUTeam Milram05:38:28  +  00:06:45=35,365 
15 SUIMartin ElmigerFRAAg2r La Mondiale05:38:28  +  00:06:45=35,365 
16 BLRAliaksandr KuchynskiITALiquigas-Doimo05:38:28  +  00:06:45=35,365 
17 FRABenoit VaugrenardFRAFrancaise Des Jeux05:38:28  +  00:06:45=35,365 
18 BELMaxime MonfortUSATeam Columbia-HTC05:38:28  +  00:06:45=35,365 
19 CANRyder HesjedalUSAGarmin-Transitions05:38:28  +  00:06:45=35,365 
20 BELJurgen Van Den BroeckBELOmega Pharma - Lotto05:38:28  +  00:06:45=35,365 
21 LUXAndy SchleckDNKTeam Saxo Bank05:38:28  +  00:06:45=35,365 
22 ESPAlberto ContadorKAZAstana Pro Team05:38:28  +  00:06:45=35,365 
23 AUSMatthew LloydBELOmega Pharma - Lotto05:38:28  +  00:06:45=35,365 
24 ESPAlan PerezESPEuskaltel - Euskadi05:38:28  +  00:06:45=35,365 
25 FRAMathieu PergetESPCaisse d´Epargne05:38:28  +  00:06:45=35,365 
26 PORRui CostaESPCaisse d´Epargne05:38:28  +  00:06:45=35,365 
27 ESPJosé Ivan GutierrezESPCaisse d´Epargne05:38:28  +  00:06:45=35,365 
28 KAZAlexandre VinokourovKAZAstana Pro Team05:38:28  +  00:06:45=35,365 
29 ESPSamuel SanchezESPEuskaltel - Euskadi05:38:28  +  00:06:45=35,365 
30 RUSDenis MenchovNLDRabobank05:38:28  +  00:06:45=35,365 
31 FRAJulien El FarèsFRACofidis Le Credit En Ligne05:38:28  +  00:06:45=35,365 
32 USAGeorge HincapieUSABMC Racing Team05:38:28  +  00:06:45=35,365 
33 BELKevin De WeertBELQuick Step05:38:28  +  00:06:45=35,365 
34 CZERoman KreuzigerITALiquigas-Doimo05:38:28  +  00:06:45=35,365 
35 ESPJoaquim RodriguezRUSTeam Katusha05:38:28  +  00:06:45=35,365 
36 ESPImanol ErvitiESPCaisse d´Epargne05:38:28  +  00:06:45=35,365 
37 NEDRobert GesinkNLDRabobank05:38:28  +  00:06:45=35,365 
38 ESPDaniel NavarroKAZAstana Pro Team05:38:28  +  00:06:45=35,365 
39 USALevi LeipheimerUSATeam Radio Shack05:38:28  +  00:06:45=35,365 
40 SLOJanez BrajkovicUSATeam Radio Shack05:38:28  +  00:06:45=35,365 
41 ESPEgoi MartínezESPEuskaltel - Euskadi05:38:28  +  00:06:45=35,365 
42 SUIJakob FuglsangDNKTeam Saxo Bank05:38:28  +  00:06:45=35,365 
43 BELBradley WigginsGBRSky Procycling05:38:28  +  00:06:45=35,365 
44 ESPDaniel MorenoBELOmega Pharma - Lotto05:38:28  +  00:06:45=35,365 
45 SUISteve MorabitoUSABMC Racing Team05:38:28  +  00:06:45=35,365 
46 ESPLuis León SánchezESPCaisse d´Epargne05:38:28  +  00:06:45=35,365 
47 SWEThomas LövkvistGBRSky Procycling05:38:28  +  00:06:45=35,365 
48 FRAJohn GadretFRAAg2r La Mondiale05:38:28  +  00:06:45=35,365 
49 ESPRafael Valls FerriESPFooton-Servetto05:38:28  +  00:06:45=35,365 
50 FRAChristophe RiblonFRAAg2r La Mondiale05:38:28  +  00:06:45=35,365 
51 ESPGorka VerdugoESPEuskaltel - Euskadi05:38:28  +  00:06:45=35,365 
52 GERAndréas KlödenUSATeam Radio Shack05:38:28  +  00:06:45=35,365 
53 PORSergio PaulinhoUSATeam Radio Shack05:38:28  +  00:06:45=35,365 
54 FRAJérôme PineauBELQuick Step05:38:28  +  00:06:45=35,365 
55 ESPCarlos SastreCHECervelo Test Team05:38:28  +  00:06:45=35,365 
56 WALGeraint ThomasGBRSky Procycling05:38:28  +  00:06:45=35,365 
57 NEDKoos MoerenhoutNLDRabobank05:38:28  +  00:06:45=35,365 
58 FRAAnthony CharteauFRABbox Bouygues Telecom05:38:28  +  00:06:45=35,365 
59 ITAPaolo TiralongoKAZAstana Pro Team05:38:28  +  00:06:45=35,365 
60 URSIgnatas KonovalovasCHECervelo Test Team05:38:42  +  00:06:59=35,341 
61 BELMario AertsBELOmega Pharma - Lotto05:40:05  +  00:08:22=35,197 
62 USADavid ZabriskieUSAGarmin-Transitions05:41:10  +  00:09:27=35,085 
63 KAZDmitriy MuravyevUSATeam Radio Shack05:41:44  +  00:10:01=35,027 
64 FRASylvain ChavanelBELQuick Step05:55:25  +  00:23:42=33,679 
65 ITADaniel OssITALiquigas-Doimo05:55:25  +  00:23:42=33,679 
66 ESPRuben PerezESPEuskaltel - Euskadi05:55:25  +  00:23:42=33,679 
67 FRAMatthieu LadagnousFRAFrancaise Des Jeux05:55:25  +  00:23:42=33,679 
68 GERGrischa NiermannNLDRabobank05:55:25  +  00:23:42=33,679 
69 SUIGregory RastUSATeam Radio Shack05:55:25  +  00:23:42=33,679 
70 RUSAlexandr KolobnevRUSTeam Katusha05:55:25  +  00:23:42=33,679 
71 ESPJuan Manuel GarateNLDRabobank05:55:25  +  00:23:42=33,679 
72 ITARinaldo NocentiniFRAAg2r La Mondiale05:55:25  +  00:23:42=33,679 
73 BELJohan VansummerenUSAGarmin-Transitions05:55:25  +  00:23:42=33,679 
74 FRAChristophe KernFRACofidis Le Credit En Ligne05:55:25  +  00:23:42=33,679 
75 GERSebastian LangBELOmega Pharma - Lotto05:55:25  +  00:23:42=33,679 
76 ITAFrancesco BellottiITALiquigas-Doimo05:55:25  +  00:23:42=33,679 
77 FRACyril GautierFRABbox Bouygues Telecom05:55:25  +  00:23:42=33,679 
78 UKRYaroslav PopovychUSATeam Radio Shack05:55:25  +  00:23:42=33,679 
79 FRARémi PauriolFRACofidis Le Credit En Ligne05:55:25  +  00:23:42=33,679 
80 UKRVolodymir GustovCHECervelo Test Team05:55:25  +  00:23:42=33,679 
81 AUSCadel EvansUSABMC Racing Team05:55:25  +  00:23:42=33,679 
82 DENChris Anker SørensenDNKTeam Saxo Bank05:55:25  +  00:23:42=33,679 
83 AUSMichael RogersUSATeam Columbia-HTC05:55:25  +  00:23:42=33,679 
84 GERLinus GerdemannDEUTeam Milram05:55:25  +  00:23:42=33,679 
85 ARGJuan Antonio FlechaGBRSky Procycling05:55:25  +  00:23:42=33,679 
86 POLSylvester SzmydITALiquigas-Doimo05:55:25  +  00:23:42=33,679 
87 ESPJesus  HernandezKAZAstana Pro Team05:55:25  +  00:23:42=33,679 
88 AUSStuart O'GradyDNKTeam Saxo Bank05:55:25  +  00:23:42=33,679 
89 NEDMaarten TjallingiiNLDRabobank06:06:31  +  00:34:48=32,659 
90 AUSRobbie McEwenRUSTeam Katusha06:06:31  +  00:34:48=32,659 
91 ITAAlessandro PetacchiITALampre-Farnese Vini06:06:31  +  00:34:48=32,659 
92 SLOGrega BoleITALampre-Farnese Vini06:06:31  +  00:34:48=32,659 
93 MDAAlexandr PliuschinRUSTeam Katusha06:06:31  +  00:34:48=32,659 
94 FRAStéphane AugeFRACofidis Le Credit En Ligne06:06:31  +  00:34:48=32,659 
95 ITAMauro Da DaltoITALampre-Farnese Vini06:06:31  +  00:34:48=32,659 
96 ITAFrancesco GavazziITALampre-Farnese Vini06:06:31  +  00:34:48=32,659 
97 GERDanilo HondoITALampre-Farnese Vini06:06:31  +  00:34:48=32,659 
98 FRASébastien MinardFRACofidis Le Credit En Ligne06:06:31  +  00:34:48=32,659 
99 DENMatti BreschelDNKTeam Saxo Bank06:06:31  +  00:34:48=32,659 
100 GERBert GrabschUSATeam Columbia-HTC06:06:31  +  00:34:48=32,659 
101 GERMarcus BurghardtUSABMC Racing Team06:06:31  +  00:34:48=32,659 
102 SLOSimon SpilakITALampre-Farnese Vini06:06:31  +  00:34:48=32,659 
103 CANMichael BarryGBRSky Procycling06:06:31  +  00:34:48=32,659 
104 FRASébastien TurgotFRABbox Bouygues Telecom06:06:31  +  00:34:48=32,659 
105 BELMaarten WynantsBELQuick Step06:06:31  +  00:34:48=32,659 
106 BELKevin SeeldraeyersBELQuick Step06:06:31  +  00:34:48=32,659 
107 RUSSerguei IvanovRUSTeam Katusha06:06:31  +  00:34:48=32,659 
108 DENNicki SørensenDNKTeam Saxo Bank06:06:31  +  00:34:48=32,659 
109 SLOKristjan KorenITALiquigas-Doimo06:06:31  +  00:34:48=32,659 
110 BELSerge PauwelsGBRSky Procycling06:06:31  +  00:34:48=32,659 
111 ITAIvan BassoITALiquigas-Doimo06:06:31  +  00:34:48=32,659 
112 DENBrian VandborgITALiquigas-Doimo06:06:31  +  00:34:48=32,659 
113 ESPJosé BenitezESPFooton-Servetto06:06:31  +  00:34:48=32,659 
114 ENGDaniel LloydCHECervelo Test Team06:06:31  +  00:34:48=32,659 
115 IOMMark CavendishUSATeam Columbia-HTC06:06:31  +  00:34:48=32,659 
116 ITAMirco LorenzettoITALampre-Farnese Vini06:06:31  +  00:34:48=32,659 
117 AUTBernhard EiselUSATeam Columbia-HTC06:06:31  +  00:34:48=32,659 
118 BLRKanstantin SivtsovUSATeam Columbia-HTC06:06:31  +  00:34:48=32,659 
119 ITAAdriano MaloriITALampre-Farnese Vini06:06:31  +  00:34:48=32,659 
120 SUIFabian CancellaraDNKTeam Saxo Bank06:06:31  +  00:34:48=32,659 
121 GERJens VoigtDNKTeam Saxo Bank06:06:31  +  00:34:48=32,659 
122 BELFrancis De GreefBELOmega Pharma - Lotto06:06:31  +  00:34:48=32,659 
123 GERChristian KneesDEUTeam Milram06:06:31  +  00:34:48=32,659 
124 RUSEduard VorganovRUSTeam Katusha06:06:31  +  00:34:48=32,659 
125 ENGStephen CummingsGBRSky Procycling06:06:31  +  00:34:48=32,659 
126 AUTThomas RohreggerDEUTeam Milram06:06:31  +  00:34:48=32,659 
127 ITAAlessandro BallanUSABMC Racing Team06:06:31  +  00:34:48=32,659 
128 AUSWesley SulzbergerFRAFrancaise Des Jeux06:06:31  +  00:34:48=32,659 
129 FRALloyd MondoryFRAAg2r La Mondiale06:06:31  +  00:34:48=32,659 
130 ESPIñaki Isasi FloresESPEuskaltel - Euskadi06:06:31  +  00:34:48=32,659 
131 ESPIvan VelascoESPEuskaltel - Euskadi06:06:31  +  00:34:48=32,659 
132 BLRVasil KiryienkaESPCaisse d´Epargne06:06:31  +  00:34:48=32,659 
133 USABrent BookwalterUSABMC Racing Team06:06:31  +  00:34:48=32,659 
134 FRAMatthieu SprickFRABbox Bouygues Telecom06:06:31  +  00:34:48=32,659 
135 NEDKarsten KroonUSABMC Racing Team06:06:31  +  00:34:48=32,659 
136 BELJürgen RoelandtsBELOmega Pharma - Lotto06:06:31  +  00:34:48=32,659 
137 NOREdvald Boasson HagenGBRSky Procycling06:06:31  +  00:34:48=32,659 
138 RUSPavel BruttRUSTeam Katusha06:06:31  +  00:34:48=32,659 
139 AUSLuke RobertsDEUTeam Milram06:06:31  +  00:34:48=32,659 
140 JPNYukiya ArashiroFRABbox Bouygues Telecom06:06:31  +  00:34:48=32,659 
141 FRAMaxime BouetFRAAg2r La Mondiale06:06:31  +  00:34:48=32,659 
142 FRAJérémy RoyFRAFrancaise Des Jeux06:06:31  +  00:34:48=32,659 
143 FRADimitri ChampionFRAAg2r La Mondiale06:06:31  +  00:34:48=32,659 
144 FRADamien MonierFRACofidis Le Credit En Ligne06:06:31  +  00:34:48=32,659 
145 FRAChristophe Le MevelFRAFrancaise Des Jeux06:06:31  +  00:34:48=32,659 
146 FRAAmaël MoinardFRACofidis Le Credit En Ligne06:06:31  +  00:34:48=32,659 
147 FRANicolas VogondyFRABbox Bouygues Telecom06:06:31  +  00:34:48=32,659 
148 FRAPierre RollandFRABbox Bouygues Telecom06:06:31  +  00:34:48=32,659 
149 ESPBenjamin NovalKAZAstana Pro Team06:06:31  +  00:34:48=32,659 
150 ESPDavid De La FuenteKAZAstana Pro Team06:06:31  +  00:34:48=32,659 
151 UKRAndriy GrivkoKAZAstana Pro Team06:06:31  +  00:34:48=32,659 
152 KAZMaxim IglinskiyKAZAstana Pro Team06:06:31  +  00:34:48=32,659 
153 ESPArkaitz DuranESPFooton-Servetto06:06:31  +  00:34:48=32,659 
154 ESPAitor PerezESPFooton-Servetto06:06:31  +  00:34:48=32,659 
155 GERJohannes FröhlingerDEUTeam Milram06:06:31  +  00:34:48=32,659 
156 GERFabian WegmannDEUTeam Milram06:06:31  +  00:34:48=32,659 
157 FRAAnthony GeslinFRAFrancaise Des Jeux06:06:31  +  00:34:48=32,659 
158 FRAThomas VoecklerFRABbox Bouygues Telecom06:06:31  +  00:34:48=32,659 
159 FRARémy Di GrégorioFRAFrancaise Des Jeux06:06:31  +  00:34:48=32,659 
160 BELDries DevenynsBELQuick Step06:06:31  +  00:34:48=32,659 
161 ITAFrancesco RedaBELQuick Step06:06:31  +  00:34:48=32,659 
162 FRAAnthony RouxFRAFrancaise Des Jeux06:06:31  +  00:34:48=32,659 
163 ITAManuel QuinziatoITALiquigas-Doimo06:06:31  +  00:34:48=32,659 
164 NEDLars BoomNLDRabobank06:06:31  +  00:34:48=32,659 
165 NEDMartijn MaaskantUSAGarmin-Transitions06:06:31  +  00:34:48=32,659 
166 ESPOscar FreireNLDRabobank06:06:31  +  00:34:48=32,659 
167 NZLJulian DeanUSAGarmin-Transitions06:06:31  +  00:34:48=32,659 
168 AUSBrett LancasterCHECervelo Test Team06:06:31  +  00:34:48=32,659 
169 GERTony MartinUSATeam Columbia-HTC06:06:31  +  00:34:48=32,659 
170 MLTDavid MillarUSAGarmin-Transitions06:06:31  +  00:34:48=32,659 
171 GERAndreas KlierCHECervelo Test Team06:06:31  +  00:34:48=32,659 
172 CANJeremy HuntCHECervelo Test Team06:06:31  +  00:34:48=32,659 

Withdrawls: 2
 
Rider
Team
Reason
198  NEDBram TankinkNLDRabobankDid not start
217  ESPIban MayozESPFooton-ServettoDid not start

Todays birthdays.

1887  Marcel Godivier
1895  Louis Thuayre
1896  Léon Devos
1932  Aniceto Utset
1935  Willy Altig
1939  Sebastián Elorza
1941  René Binggeli
1948  Gerard Moneyron
1953  Patrocinio Jiménez
1954  Pierre Bazzo
1955  Serge Beucherie
1967  Antonio Politano
1969  Sergio Barbero
1977  Luca Paolini
1980  Gregory Rast
1981  Christophe Riblon
1985  Sebastian Langeveld
1990  Johan Esteban Chaves




Visits: